sensor_id;sensor_type;location;lat;lon;timestamp;P1;durP1;ratioP1;P2;durP2;ratioP2
60430;SDS011;46285;45.122;20.726;2023-01-31T00:02:01;79.55;;;42.83;;
60430;SDS011;46285;45.122;20.726;2023-01-31T00:12:02;76.00;;;40.75;;
60430;SDS011;46285;45.122;20.726;2023-01-31T00:22:03;69.72;;;38.20;;
60430;SDS011;46285;45.122;20.726;2023-01-31T00:32:04;70.25;;;37.35;;
60430;SDS011;46285;45.122;20.726;2023-01-31T00:42:05;63.70;;;35.28;;
60430;SDS011;46285;45.122;20.726;2023-01-31T00:52:06;59.70;;;31.70;;
60430;SDS011;46285;45.122;20.726;2023-01-31T01:02:08;61.95;;;34.10;;
60430;SDS011;46285;45.122;20.726;2023-01-31T01:12:09;56.78;;;30.98;;
60430;SDS011;46285;45.122;20.726;2023-01-31T01:22:11;54.20;;;29.95;;
60430;SDS011;46285;45.122;20.726;2023-01-31T01:32:13;56.03;;;31.63;;
60430;SDS011;46285;45.122;20.726;2023-01-31T01:42:15;58.00;;;33.42;;
60430;SDS011;46285;45.122;20.726;2023-01-31T01:52:16;57.65;;;34.85;;
60430;SDS011;46285;45.122;20.726;2023-01-31T02:02:17;58.15;;;33.85;;
60430;SDS011;46285;45.122;20.726;2023-01-31T02:12:19;60.63;;;33.58;;
60430;SDS011;46285;45.122;20.726;2023-01-31T02:22:22;56.00;;;31.08;;
60430;SDS011;46285;45.122;20.726;2023-01-31T02:42:54;46.53;;;27.45;;
60430;SDS011;46285;45.122;20.726;2023-01-31T03:03:19;39.10;;;21.80;;
60430;SDS011;46285;45.122;20.726;2023-01-31T03:13:42;36.28;;;18.67;;
60430;SDS011;46285;45.122;20.726;2023-01-31T03:23:46;30.45;;;17.30;;
60430;SDS011;46285;45.122;20.726;2023-01-31T03:33:50;28.38;;;15.65;;
60430;SDS011;46285;45.122;20.726;2023-01-31T03:43:54;21.90;;;13.18;;
60430;SDS011;46285;45.122;20.726;2023-01-31T03:54:01;20.88;;;11.10;;
60430;SDS011;46285;45.122;20.726;2023-01-31T04:04:06;19.25;;;9.63;;
60430;SDS011;46285;45.122;20.726;2023-01-31T04:14:08;15.57;;;8.07;;
60430;SDS011;46285;45.122;20.726;2023-01-31T04:24:09;18.13;;;9.48;;
60430;SDS011;46285;45.122;20.726;2023-01-31T04:34:11;17.70;;;9.80;;
60430;SDS011;46285;45.122;20.726;2023-01-31T04:44:12;18.67;;;9.73;;
60430;SDS011;46285;45.122;20.726;2023-01-31T04:54:13;16.13;;;9.10;;
60430;SDS011;46285;45.122;20.726;2023-01-31T05:04:14;15.75;;;7.90;;
60430;SDS011;46285;45.122;20.726;2023-01-31T05:14:15;16.60;;;8.55;;
60430;SDS011;46285;45.122;20.726;2023-01-31T05:24:16;17.45;;;10.05;;
60430;SDS011;46285;45.122;20.726;2023-01-31T05:34:18;19.17;;;10.25;;
60430;SDS011;46285;45.122;20.726;2023-01-31T05:44:19;42.05;;;21.25;;
60430;SDS011;46285;45.122;20.726;2023-01-31T05:54:20;24.42;;;13.57;;
60430;SDS011;46285;45.122;20.726;2023-01-31T06:04:21;18.35;;;11.60;;
60430;SDS011;46285;45.122;20.726;2023-01-31T06:14:22;14.18;;;7.45;;
60430;SDS011;46285;45.122;20.726;2023-01-31T06:24:24;16.98;;;9.23;;
60430;SDS011;46285;45.122;20.726;2023-01-31T06:34:25;25.70;;;12.93;;
60430;SDS011;46285;45.122;20.726;2023-01-31T06:44:29;25.20;;;12.75;;
60430;SDS011;46285;45.122;20.726;2023-01-31T06:54:30;33.15;;;19.48;;
60430;SDS011;46285;45.122;20.726;2023-01-31T07:04:31;52.63;;;28.48;;
60430;SDS011;46285;45.122;20.726;2023-01-31T07:14:32;28.17;;;14.68;;
60430;SDS011;46285;45.122;20.726;2023-01-31T07:24:34;25.17;;;13.18;;
60430;SDS011;46285;45.122;20.726;2023-01-31T07:34:35;17.30;;;7.82;;
60430;SDS011;46285;45.122;20.726;2023-01-31T07:44:36;13.52;;;6.10;;
60430;SDS011;46285;45.122;20.726;2023-01-31T07:54:37;15.82;;;7.57;;
60430;SDS011;46285;45.122;20.726;2023-01-31T08:04:38;12.35;;;5.93;;
60430;SDS011;46285;45.122;20.726;2023-01-31T08:14:39;14.68;;;7.93;;
60430;SDS011;46285;45.122;20.726;2023-01-31T08:24:40;28.55;;;17.98;;
60430;SDS011;46285;45.122;20.726;2023-01-31T08:34:42;17.52;;;10.57;;
60430;SDS011;46285;45.122;20.726;2023-01-31T08:44:43;19.75;;;11.25;;
60430;SDS011;46285;45.122;20.726;2023-01-31T08:54:44;18.88;;;8.55;;
60430;SDS011;46285;45.122;20.726;2023-01-31T09:04:45;17.73;;;10.70;;
60430;SDS011;46285;45.122;20.726;2023-01-31T09:14:46;64.03;;;29.00;;
60430;SDS011;46285;45.122;20.726;2023-01-31T09:24:47;70.90;;;37.88;;
60430;SDS011;46285;45.122;20.726;2023-01-31T09:34:48;118.90;;;62.70;;
60430;SDS011;46285;45.122;20.726;2023-01-31T09:44:57;37.45;;;17.85;;
60430;SDS011;46285;45.122;20.726;2023-01-31T09:54:59;17.75;;;10.00;;
60430;SDS011;46285;45.122;20.726;2023-01-31T10:15:16;120.97;;;72.45;;
60430;SDS011;46285;45.122;20.726;2023-01-31T10:25:26;28.08;;;13.57;;
60430;SDS011;46285;45.122;20.726;2023-01-31T10:35:38;53.90;;;26.55;;
60430;SDS011;46285;45.122;20.726;2023-01-31T10:45:41;53.47;;;30.75;;
60430;SDS011;46285;45.122;20.726;2023-01-31T11:05:56;23.48;;;12.25;;
60430;SDS011;46285;45.122;20.726;2023-01-31T11:15:58;14.43;;;5.55;;
60430;SDS011;46285;45.122;20.726;2023-01-31T11:26:01;137.20;;;81.60;;
60430;SDS011;46285;45.122;20.726;2023-01-31T11:36:06;62.75;;;45.42;;
60430;SDS011;46285;45.122;20.726;2023-01-31T11:46:08;28.57;;;16.87;;
60430;SDS011;46285;45.122;20.726;2023-01-31T11:56:11;89.93;;;50.72;;
60430;SDS011;46285;45.122;20.726;2023-01-31T12:06:24;64.45;;;49.55;;
60430;SDS011;46285;45.122;20.726;2023-01-31T12:16:27;39.65;;;17.63;;
60430;SDS011;46285;45.122;20.726;2023-01-31T12:26:32;69.07;;;32.65;;
60430;SDS011;46285;45.122;20.726;2023-01-31T13:07:02;37.88;;;18.77;;
60430;SDS011;46285;45.122;20.726;2023-01-31T13:17:04;33.25;;;15.45;;
60430;SDS011;46285;45.122;20.726;2023-01-31T13:27:15;71.55;;;28.60;;
60430;SDS011;46285;45.122;20.726;2023-01-31T13:37:18;93.35;;;38.92;;
60430;SDS011;46285;45.122;20.726;2023-01-31T13:47:21;191.38;;;97.90;;
60430;SDS011;46285;45.122;20.726;2023-01-31T14:07:26;167.18;;;88.40;;
60430;SDS011;46285;45.122;20.726;2023-01-31T14:27:30;87.03;;;41.72;;
60430;SDS011;46285;45.122;20.726;2023-01-31T14:37:35;92.13;;;47.80;;
60430;SDS011;46285;45.122;20.726;2023-01-31T14:47:57;76.07;;;33.08;;
60430;SDS011;46285;45.122;20.726;2023-01-31T14:58:03;64.22;;;26.00;;
60430;SDS011;46285;45.122;20.726;2023-01-31T15:08:29;47.20;;;22.05;;
60430;SDS011;46285;45.122;20.726;2023-01-31T15:18:27;58.20;;;25.92;;
60430;SDS011;46285;45.122;20.726;2023-01-31T15:28:29;88.22;;;41.63;;
60430;SDS011;46285;45.122;20.726;2023-01-31T15:48:46;68.05;;;27.92;;
60430;SDS011;46285;45.122;20.726;2023-01-31T15:58:50;87.18;;;37.55;;
60430;SDS011;46285;45.122;20.726;2023-01-31T16:08:53;55.65;;;24.20;;
60430;SDS011;46285;45.122;20.726;2023-01-31T16:18:56;336.38;;;186.73;;
60430;SDS011;46285;45.122;20.726;2023-01-31T16:28:58;233.00;;;137.77;;
60430;SDS011;46285;45.122;20.726;2023-01-31T16:39:01;146.57;;;84.68;;
60430;SDS011;46285;45.122;20.726;2023-01-31T16:49:05;79.78;;;49.67;;
60430;SDS011;46285;45.122;20.726;2023-01-31T16:59:18;196.80;;;125.00;;
60430;SDS011;46285;45.122;20.726;2023-01-31T17:09:27;182.73;;;110.72;;
60430;SDS011;46285;45.122;20.726;2023-01-31T17:19:29;236.48;;;91.03;;
60430;SDS011;46285;45.122;20.726;2023-01-31T17:29:30;151.77;;;64.60;;
60430;SDS011;46285;45.122;20.726;2023-01-31T17:39:31;100.40;;;38.95;;
60430;SDS011;46285;45.122;20.726;2023-01-31T17:49:32;264.75;;;103.28;;
60430;SDS011;46285;45.122;20.726;2023-01-31T17:59:33;161.75;;;64.32;;
60430;SDS011;46285;45.122;20.726;2023-01-31T18:09:34;66.18;;;37.58;;
60430;SDS011;46285;45.122;20.726;2023-01-31T18:19:35;97.80;;;50.13;;
60430;SDS011;46285;45.122;20.726;2023-01-31T18:29:37;169.82;;;87.20;;
60430;SDS011;46285;45.122;20.726;2023-01-31T18:39:38;47.13;;;26.85;;
60430;SDS011;46285;45.122;20.726;2023-01-31T18:49:39;34.90;;;18.65;;
60430;SDS011;46285;45.122;20.726;2023-01-31T18:59:41;61.47;;;31.27;;
60430;SDS011;46285;45.122;20.726;2023-01-31T19:09:42;61.85;;;28.75;;
60430;SDS011;46285;45.122;20.726;2023-01-31T19:19:44;58.53;;;31.00;;
60430;SDS011;46285;45.122;20.726;2023-01-31T19:29:45;80.15;;;46.50;;
60430;SDS011;46285;45.122;20.726;2023-01-31T19:39:46;36.40;;;20.75;;
60430;SDS011;46285;45.122;20.726;2023-01-31T19:49:47;81.55;;;52.88;;
60430;SDS011;46285;45.122;20.726;2023-01-31T19:59:48;105.85;;;68.05;;
60430;SDS011;46285;45.122;20.726;2023-01-31T20:09:50;269.83;;;136.57;;
60430;SDS011;46285;45.122;20.726;2023-01-31T20:19:51;221.93;;;120.95;;
60430;SDS011;46285;45.122;20.726;2023-01-31T20:29:52;415.42;;;235.23;;
60430;SDS011;46285;45.122;20.726;2023-01-31T20:39:54;281.48;;;159.10;;
60430;SDS011;46285;45.122;20.726;2023-01-31T20:49:55;107.32;;;67.00;;
60430;SDS011;46285;45.122;20.726;2023-01-31T20:59:56;41.13;;;27.67;;
60430;SDS011;46285;45.122;20.726;2023-01-31T21:09:58;29.23;;;17.98;;
60430;SDS011;46285;45.122;20.726;2023-01-31T21:20:01;25.00;;;13.23;;
60430;SDS011;46285;45.122;20.726;2023-01-31T21:30:02;42.63;;;25.73;;
60430;SDS011;46285;45.122;20.726;2023-01-31T21:40:04;47.60;;;30.05;;
60430;SDS011;46285;45.122;20.726;2023-01-31T21:50:05;25.00;;;15.13;;
60430;SDS011;46285;45.122;20.726;2023-01-31T22:00:07;25.92;;;15.00;;
60430;SDS011;46285;45.122;20.726;2023-01-31T22:10:08;62.38;;;31.88;;
60430;SDS011;46285;45.122;20.726;2023-01-31T22:20:10;208.27;;;115.38;;
60430;SDS011;46285;45.122;20.726;2023-01-31T22:30:11;81.90;;;44.70;;
60430;SDS011;46285;45.122;20.726;2023-01-31T22:40:12;72.55;;;37.95;;
60430;SDS011;46285;45.122;20.726;2023-01-31T22:50:13;74.18;;;39.28;;
60430;SDS011;46285;45.122;20.726;2023-01-31T23:00:14;37.00;;;23.60;;
60430;SDS011;46285;45.122;20.726;2023-01-31T23:10:16;29.85;;;18.60;;
60430;SDS011;46285;45.122;20.726;2023-01-31T23:20:17;31.88;;;18.23;;
60430;SDS011;46285;45.122;20.726;2023-01-31T23:30:19;49.22;;;25.42;;
60430;SDS011;46285;45.122;20.726;2023-01-31T23:40:20;33.10;;;18.08;;
60430;SDS011;46285;45.122;20.726;2023-01-31T23:50:21;16.65;;;11.10;;
